createdAt,value
2024-01-15T00:00:57.767Z,100.00
2024-01-15T00:05:21.136Z,100.00
2024-01-15T00:09:24.756Z,100.00
2024-01-15T00:13:30.136Z,100.00
2024-01-15T00:17:52.007Z,100.00
2024-01-15T00:21:55.285Z,100.00
2024-01-15T00:25:58.659Z,100.00
2024-01-15T00:30:02.265Z,99.86
2024-01-15T00:34:05.928Z,99.57
2024-01-15T00:38:15.436Z,98.33
2024-01-15T00:42:18.657Z,96.90
2024-01-15T00:46:22.251Z,97.19
2024-01-15T00:50:25.444Z,96.48
2024-01-15T00:54:33.392Z,95.91
2024-01-15T00:58:36.887Z,93.83
2024-01-15T01:02:40.072Z,93.48
2024-01-15T01:06:43.860Z,92.63
2024-01-15T01:10:47.196Z,92.64
2024-01-15T01:14:52.165Z,92.77
2024-01-15T01:18:55.444Z,93.68
2024-01-15T01:22:59.784Z,96.99
2024-01-15T01:27:03.790Z,98.89
2024-01-15T01:31:07.201Z,99.78
2024-01-15T01:35:10.504Z,100.00
2024-01-15T01:39:13.808Z,100.00
2024-01-15T01:43:17.208Z,100.00
2024-01-15T01:47:20.535Z,100.00
2024-01-15T01:51:26.054Z,100.00
2024-01-15T01:55:36.441Z,100.00
2024-01-15T01:59:41.388Z,100.00
2024-01-15T02:03:45.186Z,100.00
2024-01-15T02:07:48.919Z,100.00
2024-01-15T02:11:54.264Z,100.00
2024-01-15T02:15:57.877Z,100.00
2024-01-15T02:20:04.059Z,100.00
2024-01-15T02:24:07.884Z,100.00
2024-01-15T02:28:15.795Z,100.00
2024-01-15T02:32:19.493Z,100.00
2024-01-15T02:36:24.803Z,100.00
2024-01-15T02:40:28.245Z,100.00
2024-01-15T02:44:31.447Z,100.00
2024-01-15T02:48:37.217Z,100.00
2024-01-15T02:52:42.151Z,100.00
2024-01-15T02:56:52.629Z,100.00
2024-01-15T03:00:55.976Z,100.00
2024-01-15T03:04:59.960Z,100.00
2024-01-15T03:09:05.137Z,100.00
2024-01-15T03:13:08.499Z,100.00
2024-01-15T03:17:13.752Z,100.00
2024-01-15T03:21:18.073Z,100.00
2024-01-15T03:25:26.305Z,100.00
2024-01-15T03:29:29.913Z,100.00
2024-01-15T03:33:33.640Z,100.00
2024-01-15T03:37:38.637Z,100.00
2024-01-15T03:41:42.383Z,99.97
2024-01-15T03:45:45.714Z,100.00
2024-01-15T03:49:49.467Z,100.00
2024-01-15T03:54:23.261Z,100.00
2024-01-15T03:58:26.803Z,100.00
2024-01-15T04:02:31.164Z,100.00
2024-01-15T04:06:35.348Z,100.00
2024-01-15T04:10:41.676Z,100.00
2024-01-15T04:14:45.281Z,100.00
2024-01-15T04:18:57.685Z,100.00
2024-01-15T04:23:01.305Z,100.00
2024-01-15T04:27:05.537Z,100.00
2024-01-15T04:31:09.260Z,100.00
2024-01-15T04:35:14.456Z,100.00
2024-01-15T04:39:20.277Z,100.00
2024-01-15T04:43:23.695Z,100.00
2024-01-15T04:47:26.983Z,100.00
2024-01-15T04:51:30.367Z,100.00
2024-01-15T04:55:33.679Z,100.00
2024-01-15T04:59:36.978Z,100.00
2024-01-15T05:03:40.937Z,100.00
2024-01-15T05:07:44.606Z,100.00
2024-01-15T05:11:48.960Z,100.00
2024-01-15T05:15:53.037Z,100.00
2024-01-15T05:19:56.563Z,100.00
2024-01-15T05:24:10.761Z,100.00
2024-01-15T05:28:39.326Z,100.00
2024-01-15T05:32:45.249Z,100.00
2024-01-15T05:36:55.078Z,100.00
2024-01-15T05:41:01.242Z,100.00
2024-01-15T05:45:07.673Z,100.00
2024-01-15T05:49:11.414Z,100.00
2024-01-15T05:53:15.226Z,100.00
2024-01-15T05:57:19.126Z,100.00
2024-01-15T06:01:22.540Z,100.00
2024-01-15T06:05:26.798Z,100.00
2024-01-15T06:09:30.131Z,100.00
2024-01-15T06:13:33.425Z,100.00
2024-01-15T06:17:36.913Z,100.00
2024-01-15T06:21:40.233Z,100.00
2024-01-15T06:25:43.908Z,100.00
2024-01-15T06:29:51.389Z,100.00
2024-01-15T06:33:57.188Z,100.00
2024-01-15T06:38:00.788Z,100.00
2024-01-15T06:42:31.035Z,100.00
2024-01-15T06:46:37.422Z,100.00
2024-01-15T06:50:40.848Z,100.00
2024-01-15T06:54:44.245Z,100.00
2024-01-15T06:58:47.426Z,100.00
2024-01-15T07:02:55.140Z,100.00
2024-01-15T07:06:58.792Z,100.00
2024-01-15T07:11:17.496Z,100.00
2024-01-15T07:15:21.270Z,100.00
2024-01-15T07:19:26.745Z,99.86
2024-01-15T07:23:31.431Z,99.06
2024-01-15T07:27:41.517Z,98.53
2024-01-15T07:32:01.356Z,96.20
2024-01-15T07:36:05.194Z,93.25
2024-01-15T07:40:11.712Z,92.86
2024-01-15T07:44:21.413Z,91.39
2024-01-15T07:48:25.614Z,90.90
2024-01-15T07:52:29.195Z,89.34
2024-01-15T07:56:32.556Z,88.49
2024-01-15T08:00:35.887Z,88.41
2024-01-15T08:04:42.082Z,88.32
2024-01-15T08:08:45.298Z,88.13
2024-01-15T08:12:48.331Z,89.19
2024-01-15T08:16:52.162Z,89.30
2024-01-15T08:20:55.479Z,89.42
2024-01-15T08:24:58.717Z,92.07
2024-01-15T08:29:02.147Z,94.25
2024-01-15T08:33:11.461Z,94.19
2024-01-15T08:37:21.805Z,93.34
2024-01-15T08:41:25.364Z,92.05
2024-01-15T08:45:31.186Z,90.27
2024-01-15T08:49:35.223Z,88.32
2024-01-15T08:53:38.782Z,88.40
2024-01-15T08:57:41.988Z,89.21
2024-01-15T09:01:45.190Z,88.45
2024-01-15T09:05:50.006Z,88.08
2024-01-15T09:09:53.005Z,88.32
2024-01-15T09:13:56.238Z,89.10
2024-01-15T09:18:00.433Z,88.44
2024-01-15T09:22:03.801Z,87.36
2024-01-15T09:26:09.759Z,87.55
2024-01-15T09:30:13.590Z,88.04
2024-01-15T09:34:16.968Z,87.44
2024-01-15T09:38:21.712Z,86.58
2024-01-15T09:42:29.658Z,86.44
2024-01-15T09:46:34.152Z,86.28
2024-01-15T09:50:38.167Z,86.91
2024-01-15T09:54:41.931Z,86.54
2024-01-15T09:58:46.366Z,87.53
2024-01-15T10:02:49.374Z,88.50
2024-01-15T10:06:53.474Z,88.62
2024-01-15T10:10:56.640Z,88.78
2024-01-15T10:14:59.964Z,88.23
2024-01-15T10:19:04.141Z,88.39
2024-01-15T10:23:07.271Z,87.74
2024-01-15T10:27:11.219Z,87.07
2024-01-15T10:31:14.447Z,85.97
2024-01-15T10:35:17.530Z,85.92
2024-01-15T10:39:20.557Z,85.51
2024-01-15T10:43:28.172Z,85.95
2024-01-15T10:47:32.619Z,85.69
2024-01-15T10:51:36.406Z,84.69
2024-01-15T10:55:40.833Z,85.02
2024-01-15T10:59:44.229Z,84.34
2024-01-15T11:03:47.983Z,84.81
2024-01-15T11:07:51.808Z,84.48
2024-01-15T11:12:10.565Z,84.90
2024-01-15T11:16:14.970Z,86.19
2024-01-15T11:20:17.813Z,87.34
2024-01-15T11:24:36.894Z,86.64
2024-01-15T11:28:49.752Z,86.10
2024-01-15T11:32:52.794Z,85.94
2024-01-15T11:36:55.827Z,86.43
2024-01-15T11:41:00.783Z,86.02
2024-01-15T11:45:05.284Z,85.65
2024-01-15T11:49:13.332Z,85.77
2024-01-15T11:53:41.905Z,84.64
2024-01-15T11:57:52.056Z,85.13
2024-01-15T12:01:55.176Z,85.09
2024-01-15T12:05:59.666Z,85.02
2024-01-15T12:10:04.144Z,84.49
2024-01-15T12:14:07.088Z,84.42
2024-01-15T12:18:12.800Z,84.38
2024-01-15T12:22:16.692Z,84.84
2024-01-15T12:26:19.948Z,83.74
2024-01-15T12:30:22.865Z,85.32
2024-01-15T12:34:31.049Z,85.75
2024-01-15T12:38:33.958Z,84.92
2024-01-15T12:42:38.029Z,85.58
2024-01-15T12:46:41.493Z,85.65
2024-01-15T12:50:45.241Z,86.93
2024-01-15T12:54:52.695Z,88.36
2024-01-15T12:58:55.546Z,88.83
2024-01-15T13:02:58.802Z,88.48
2024-01-15T13:07:02.267Z,88.10
2024-01-15T13:11:06.571Z,87.36
2024-01-15T13:15:14.681Z,86.64
2024-01-15T13:19:18.761Z,86.48
2024-01-15T13:23:22.235Z,85.68
2024-01-15T13:27:25.454Z,84.36
2024-01-15T13:31:32.172Z,83.98
2024-01-15T13:35:37.307Z,84.04
2024-01-15T13:39:40.400Z,84.27
2024-01-15T13:43:43.512Z,83.56
2024-01-15T13:47:46.622Z,84.27
2024-01-15T13:51:49.919Z,84.49
2024-01-15T13:55:52.960Z,83.83
2024-01-15T13:59:56.416Z,82.99
2024-01-15T14:03:59.935Z,83.28
2024-01-15T14:08:04.763Z,82.45
2024-01-15T14:12:08.113Z,81.92
2024-01-15T14:16:12.270Z,82.44
2024-01-15T14:20:15.623Z,82.56
2024-01-15T14:24:20.181Z,82.98
2024-01-15T14:28:24.761Z,82.45
2024-01-15T14:32:28.646Z,81.90
2024-01-15T14:36:31.807Z,82.73
2024-01-15T14:40:36.713Z,82.81
2024-01-15T14:44:42.105Z,82.47
2024-01-15T14:48:50.116Z,83.35
2024-01-15T14:52:53.500Z,83.57
2024-01-15T14:56:58.161Z,83.79
2024-01-15T15:01:01.906Z,84.26
2024-01-15T15:05:05.668Z,84.69
2024-01-15T15:09:13.309Z,85.27
2024-01-15T15:13:18.329Z,86.02
2024-01-15T15:17:24.831Z,86.92
2024-01-15T15:21:30.060Z,87.96
2024-01-15T15:25:33.168Z,88.90
2024-01-15T15:29:36.531Z,92.06
2024-01-15T15:33:39.897Z,91.91
2024-01-15T15:37:43.253Z,92.14
2024-01-15T15:41:46.555Z,92.67
2024-01-15T15:45:49.770Z,92.31
2024-01-15T15:49:53.020Z,92.41
2024-01-15T15:53:56.872Z,92.63
2024-01-15T15:57:59.888Z,92.34
2024-01-15T16:02:03.482Z,92.09
2024-01-15T16:06:06.677Z,91.43
2024-01-15T16:10:11.038Z,91.31
2024-01-15T16:14:14.346Z,91.40
2024-01-15T16:23:20.260Z,90.06
2024-01-15T16:23:43.248Z,90.56
2024-01-15T16:27:04.252Z,89.85
2024-01-15T16:31:08.854Z,90.53
2024-01-15T16:35:12.653Z,90.34
2024-01-15T16:39:16.112Z,90.29
2024-01-15T16:43:19.210Z,90.65
2024-01-15T16:47:22.573Z,91.48
2024-01-15T16:51:25.672Z,92.20
2024-01-15T16:55:28.801Z,94.71
2024-01-15T16:59:32.465Z,95.49
2024-01-15T17:03:35.620Z,95.12
2024-01-15T17:07:39.265Z,94.85
2024-01-15T17:11:42.473Z,94.73
2024-01-15T17:15:45.718Z,95.28
2024-01-15T17:19:50.029Z,96.05
2024-01-15T17:23:53.457Z,96.37
2024-01-15T17:27:56.624Z,96.55
2024-01-15T17:31:59.864Z,99.09
2024-01-15T17:36:03.838Z,100.00
2024-01-15T17:40:07.924Z,100.00
2024-01-15T17:44:11.274Z,100.00
2024-01-15T17:48:14.573Z,100.00
2024-01-15T17:52:18.638Z,100.00
2024-01-15T17:56:21.799Z,100.00
2024-01-15T18:00:25.113Z,100.00
2024-01-15T18:04:28.165Z,100.00
2024-01-15T18:08:31.480Z,100.00
2024-01-15T18:12:35.269Z,100.00
2024-01-15T18:16:43.296Z,100.00
2024-01-15T18:20:47.422Z,100.00
2024-01-15T18:24:50.609Z,100.00
2024-01-15T18:28:53.835Z,100.00
2024-01-15T18:32:57.145Z,100.00
2024-01-15T18:37:00.339Z,100.00
2024-01-15T18:41:05.546Z,100.00
2024-01-15T18:45:09.018Z,100.00
2024-01-15T18:49:13.383Z,100.00
2024-01-15T18:53:16.479Z,100.00
2024-01-15T18:57:19.687Z,100.00
2024-01-15T19:01:33.360Z,100.00
2024-01-15T19:05:40.273Z,100.00
2024-01-15T19:09:43.855Z,100.00
2024-01-15T19:13:47.253Z,100.00
2024-01-15T19:17:51.343Z,100.00
2024-01-15T19:21:54.592Z,100.00
2024-01-15T19:25:57.799Z,100.00
2024-01-15T19:30:01.133Z,100.00
2024-01-15T19:34:05.498Z,100.00
2024-01-15T19:38:08.730Z,100.00
2024-01-15T19:42:12.006Z,100.00
2024-01-15T19:46:17.004Z,100.00
2024-01-15T19:50:20.546Z,100.00
2024-01-15T19:54:24.345Z,100.00
2024-01-15T19:58:27.573Z,100.00
2024-01-15T20:02:30.717Z,100.00
2024-01-15T20:06:33.975Z,100.00
2024-01-15T20:10:39.628Z,100.00
2024-01-15T20:14:43.541Z,100.00
2024-01-15T20:18:46.667Z,100.00
2024-01-15T20:22:49.890Z,100.00
2024-01-15T20:26:53.271Z,100.00
2024-01-15T20:30:56.360Z,100.00
2024-01-15T20:34:59.529Z,100.00
2024-01-15T20:39:04.073Z,100.00
2024-01-15T20:43:07.149Z,100.00
2024-01-15T20:47:11.687Z,100.00
2024-01-15T20:51:15.122Z,100.00
2024-01-15T20:55:18.229Z,100.00
2024-01-15T20:59:21.605Z,100.00
2024-01-15T21:03:25.445Z,100.00
2024-01-15T21:07:29.211Z,100.00
2024-01-15T21:11:32.357Z,100.00
2024-01-15T21:15:36.584Z,100.00
2024-01-15T21:19:39.635Z,100.00
2024-01-15T21:23:43.015Z,100.00
2024-01-15T21:27:47.403Z,100.00
2024-01-15T21:31:50.500Z,100.00
2024-01-15T21:35:53.756Z,100.00
2024-01-15T21:39:56.798Z,100.00
2024-01-15T21:44:00.372Z,100.00
2024-01-15T21:48:03.699Z,100.00
2024-01-15T21:52:07.035Z,100.00
2024-01-15T21:56:13.050Z,100.00
2024-01-15T22:00:16.853Z,100.00
2024-01-15T22:04:20.052Z,100.00
2024-01-15T22:08:23.249Z,100.00
2024-01-15T22:12:26.324Z,100.00
2024-01-15T22:16:29.351Z,100.00
2024-01-15T22:20:32.471Z,100.00
2024-01-15T22:24:38.641Z,100.00
2024-01-15T22:28:41.729Z,100.00
2024-01-15T22:32:44.963Z,100.00
2024-01-15T22:36:48.110Z,100.00
2024-01-15T22:40:51.198Z,100.00
2024-01-15T22:44:54.283Z,100.00
2024-01-15T22:48:57.603Z,100.00
2024-01-15T22:53:00.817Z,100.00
2024-01-15T22:57:04.181Z,100.00
2024-01-15T23:01:07.337Z,100.00
2024-01-15T23:05:10.475Z,100.00
2024-01-15T23:09:14.778Z,100.00
2024-01-15T23:13:18.021Z,100.00
2024-01-15T23:17:21.455Z,100.00
2024-01-15T23:21:24.913Z,100.00
2024-01-15T23:25:28.133Z,100.00
2024-01-15T23:29:31.279Z,100.00
2024-01-15T23:33:34.548Z,100.00
2024-01-15T23:37:37.769Z,100.00
2024-01-15T23:41:41.114Z,100.00
2024-01-15T23:45:44.601Z,100.00
2024-01-15T23:49:47.798Z,100.00
2024-01-15T23:53:50.806Z,100.00
2024-01-15T23:57:54.129Z,100.00
